createdAt,value
2022-10-18T00:05:01.935Z,57.10
2022-10-18T00:10:06.746Z,57.00
2022-10-18T00:15:12.744Z,57.00
2022-10-18T00:20:16.050Z,57.10
2022-10-18T00:25:20.256Z,57.10
2022-10-18T00:30:25.850Z,57.10
2022-10-18T00:35:29.130Z,57.10
2022-10-18T00:40:32.435Z,56.90
2022-10-18T00:45:37.330Z,56.90
2022-10-18T00:50:41.392Z,57.20
2022-10-18T00:55:45.385Z,57.20
2022-10-18T01:00:50.317Z,57.10
2022-10-18T01:12:00.156Z,56.90
2022-10-18T01:17:14.322Z,56.90
2022-10-18T01:22:24.470Z,57.10
2022-10-18T01:27:51.434Z,57.20
2022-10-18T01:32:59.630Z,57.30
2022-10-18T01:38:07.695Z,57.30
2022-10-18T01:43:13.178Z,57.30
2022-10-18T01:48:18.429Z,57.40
2022-10-18T01:53:30.699Z,57.40
2022-10-18T01:58:42.882Z,57.30
2022-10-18T02:03:51.676Z,57.10
2022-10-18T02:09:00.570Z,57.30
2022-10-18T02:14:09.067Z,57.40
2022-10-18T02:19:18.119Z,57.60
2022-10-18T02:24:24.804Z,57.60
2022-10-18T02:29:29.532Z,57.70
2022-10-18T02:34:39.454Z,57.80
2022-10-18T02:39:47.448Z,57.90
2022-10-18T02:44:50.735Z,58.30
2022-10-18T02:49:55.606Z,58.60
2022-10-18T02:54:58.977Z,58.70
2022-10-18T03:00:02.288Z,59.70
2022-10-18T03:05:07.335Z,59.00
2022-10-18T03:10:11.120Z,59.10
2022-10-18T03:15:14.758Z,59.50
2022-10-18T03:20:19.852Z,59.50
2022-10-18T03:25:23.225Z,59.70
2022-10-18T03:30:26.898Z,59.70
2022-10-18T03:35:31.597Z,59.60
2022-10-18T03:40:35.217Z,60.80
2022-10-18T03:45:38.576Z,59.60
2022-10-18T03:50:44.223Z,60.10
2022-10-18T03:55:52.500Z,60.60
2022-10-18T04:00:56.562Z,60.70
2022-10-18T04:06:03.465Z,60.80
2022-10-18T04:11:09.859Z,60.60
2022-10-18T04:16:13.197Z,60.50
2022-10-18T04:21:18.093Z,61.00
2022-10-18T04:26:21.457Z,61.10
2022-10-18T04:31:25.180Z,61.20
2022-10-18T04:36:29.811Z,62.40
2022-10-18T04:41:33.273Z,61.60
2022-10-18T04:46:36.709Z,62.00
2022-10-18T04:51:41.638Z,62.00
2022-10-18T04:56:46.353Z,62.00
2022-10-18T05:01:50.427Z,62.00
2022-10-18T05:06:55.482Z,62.00
2022-10-18T05:11:58.729Z,61.90
2022-10-18T05:17:02.038Z,62.00
2022-10-18T05:22:06.688Z,61.90
2022-10-18T05:27:11.114Z,61.80
2022-10-18T05:32:14.611Z,61.80
2022-10-18T05:37:21.318Z,61.80
2022-10-18T05:42:27.534Z,61.70
2022-10-18T05:47:30.937Z,62.00
2022-10-18T05:52:35.682Z,62.00
2022-10-18T05:57:38.977Z,61.80
2022-10-18T06:02:42.261Z,61.70
2022-10-18T06:07:46.939Z,61.60
2022-10-18T06:12:50.226Z,61.60
2022-10-18T06:17:53.634Z,61.70
2022-10-18T06:22:58.249Z,61.90
2022-10-18T06:28:01.531Z,61.80
2022-10-18T06:33:04.977Z,61.80
2022-10-18T06:38:09.683Z,61.80
2022-10-18T06:43:21.150Z,62.00
2022-10-18T06:48:25.642Z,62.40
2022-10-18T06:53:32.075Z,62.60
2022-10-18T06:58:36.529Z,63.20
2022-10-18T07:03:40.281Z,63.40
2022-10-18T07:08:45.570Z,63.50
2022-10-18T07:13:49.073Z,63.50
2022-10-18T07:18:52.895Z,63.40
2022-10-18T07:23:58.049Z,63.30
2022-10-18T07:29:03.613Z,63.50
2022-10-18T07:34:08.262Z,63.20
2022-10-18T07:39:12.978Z,63.00
2022-10-18T07:44:16.405Z,63.00
2022-10-18T07:49:19.763Z,63.10
2022-10-18T07:54:24.493Z,62.80
2022-10-18T07:59:27.903Z,62.80
2022-10-18T08:04:31.166Z,62.50
2022-10-18T08:09:35.813Z,62.40
2022-10-18T08:14:39.137Z,62.20
2022-10-18T08:19:52.822Z,62.20
2022-10-18T08:25:07.738Z,62.20
2022-10-18T08:30:12.550Z,61.90
2022-10-18T08:35:16.328Z,61.70
2022-10-18T08:40:21.335Z,61.40
2022-10-18T08:45:40.986Z,61.50
2022-10-18T08:50:45.361Z,61.70
2022-10-18T08:55:53.461Z,60.80
2022-10-18T09:01:08.231Z,60.10
2022-10-18T09:06:22.729Z,60.10
2022-10-18T09:11:47.996Z,59.60
2022-10-18T09:16:58.759Z,59.00
2022-10-18T09:22:10.602Z,58.70
2022-10-18T09:27:17.611Z,58.30
2022-10-18T09:32:31.794Z,58.20
2022-10-18T09:37:36.429Z,57.00
2022-10-18T09:42:44.642Z,56.90
2022-10-18T09:47:59.480Z,56.90
2022-10-18T09:53:13.368Z,56.30
2022-10-18T09:58:19.459Z,56.10
2022-10-18T10:03:23.221Z,55.90
2022-10-18T10:08:35.454Z,55.20
2022-10-18T10:13:40.127Z,54.80
2022-10-18T10:18:43.874Z,54.00
2022-10-18T10:23:54.847Z,53.50
2022-10-18T10:29:00.512Z,53.80
2022-10-18T10:34:07.820Z,52.70
2022-10-18T10:39:18.745Z,52.00
2022-10-18T10:44:26.323Z,52.20
2022-10-18T10:49:42.791Z,52.40
2022-10-18T10:54:50.524Z,52.10
2022-10-18T10:59:59.686Z,51.70
2022-10-18T11:05:18.273Z,51.80
2022-10-18T11:10:26.370Z,51.20
2022-10-18T11:15:37.496Z,51.20
2022-10-18T11:20:46.397Z,51.70
2022-10-18T11:26:12.648Z,52.00
2022-10-18T11:31:25.150Z,51.70
2022-10-18T11:36:36.758Z,51.30
2022-10-18T11:41:46.428Z,51.60
2022-10-18T11:47:00.251Z,51.10
2022-10-18T11:52:11.718Z,50.70
2022-10-18T11:57:21.546Z,50.40
2022-10-18T12:02:46.041Z,50.60
2022-10-18T12:08:01.454Z,49.00
2022-10-18T12:13:08.802Z,47.60
2022-10-18T12:18:18.804Z,47.80
2022-10-18T12:23:39.765Z,47.70
2022-10-18T12:28:52.578Z,47.80
2022-10-18T12:34:01.393Z,48.30
2022-10-18T12:39:11.576Z,48.30
2022-10-18T12:44:21.394Z,48.60
2022-10-18T12:49:29.996Z,48.80
2022-10-18T12:54:36.779Z,48.70
2022-10-18T12:59:44.071Z,48.90
2022-10-18T13:04:48.956Z,49.50
2022-10-18T13:10:29.286Z,50.00
2022-10-18T13:15:43.669Z,50.20
2022-10-18T13:20:57.757Z,50.30
2022-10-18T13:26:13.406Z,50.40
2022-10-18T13:31:23.295Z,50.00
2022-10-18T13:36:33.706Z,49.50
2022-10-18T13:42:09.405Z,49.50
2022-10-18T13:47:15.039Z,48.60
2022-10-18T13:52:26.086Z,48.40
2022-10-18T13:57:45.577Z,47.80
2022-10-18T14:03:38.041Z,47.30
2022-10-18T14:08:53.590Z,47.60
2022-10-18T14:14:05.343Z,48.20
2022-10-18T14:19:17.309Z,48.10
2022-10-18T14:24:25.393Z,48.80
2022-10-18T14:29:28.828Z,50.30
2022-10-18T14:34:32.241Z,56.20
2022-10-18T14:39:39.922Z,60.90
2022-10-18T14:44:54.199Z,63.90
2022-10-18T14:49:59.407Z,66.30
2022-10-18T14:55:04.595Z,68.50
2022-10-18T15:00:10.249Z,70.60
2022-10-18T15:05:22.003Z,70.70
2022-10-18T15:10:30.576Z,72.00
2022-10-18T15:15:36.187Z,71.30
2022-10-18T15:20:42.587Z,71.10
2022-10-18T15:25:47.533Z,70.40
2022-10-18T15:30:50.937Z,71.30
2022-10-18T15:35:55.404Z,72.00
2022-10-18T15:41:00.469Z,72.30
2022-10-18T15:46:07.045Z,72.90
2022-10-18T15:51:23.919Z,74.20
2022-10-18T15:56:31.557Z,74.60
2022-10-18T16:01:38.643Z,74.40
2022-10-18T16:06:45.153Z,74.30
2022-10-18T16:11:55.804Z,74.10
2022-10-18T16:17:02.284Z,73.80
2022-10-18T16:22:08.052Z,73.90
2022-10-18T16:27:12.708Z,73.70
2022-10-18T16:32:16.280Z,73.50
2022-10-18T16:37:19.925Z,73.40
2022-10-18T16:42:25.088Z,73.60
2022-10-18T16:47:28.976Z,74.00
2022-10-18T16:52:32.911Z,74.60
2022-10-18T16:57:38.029Z,75.00
2022-10-18T17:02:41.327Z,75.00
2022-10-18T17:07:46.839Z,75.40
2022-10-18T17:12:52.460Z,75.90
2022-10-18T17:17:55.834Z,76.50
2022-10-18T17:22:59.169Z,76.50
2022-10-18T17:28:04.148Z,76.70
2022-10-18T17:33:08.761Z,76.90
2022-10-18T17:38:12.219Z,77.30
2022-10-18T17:43:17.110Z,77.80
2022-10-18T17:48:20.932Z,78.10
2022-10-18T17:53:28.609Z,78.00
2022-10-18T17:58:33.834Z,78.10
2022-10-18T18:03:37.222Z,78.40
2022-10-18T18:08:40.564Z,78.60
2022-10-18T18:13:45.231Z,78.50
2022-10-18T18:18:50.806Z,78.70
2022-10-18T18:23:54.173Z,79.00
2022-10-18T18:28:59.371Z,79.50
2022-10-18T18:34:03.205Z,79.00
2022-10-18T18:39:07.343Z,78.80
2022-10-18T18:44:12.404Z,78.90
2022-10-18T18:49:23.658Z,79.00
2022-10-18T18:54:28.730Z,79.20
2022-10-18T18:59:34.119Z,79.80
2022-10-18T19:17:01.605Z,79.50
2022-10-18T19:22:05.087Z,79.50
2022-10-18T19:27:12.567Z,79.50
2022-10-18T19:32:19.058Z,79.40
2022-10-18T19:37:22.471Z,79.40
2022-10-18T19:42:31.658Z,79.50
2022-10-18T19:47:38.461Z,79.70
2022-10-18T19:52:41.840Z,80.00
2022-10-18T19:57:45.282Z,80.20
2022-10-18T20:02:49.965Z,80.20
2022-10-18T20:07:53.253Z,80.60
2022-10-18T20:12:56.566Z,80.40
2022-10-18T20:18:01.293Z,80.20
2022-10-18T20:23:04.754Z,80.20
2022-10-18T20:28:09.125Z,79.80
2022-10-18T20:33:14.109Z,79.80
2022-10-18T20:38:17.400Z,79.80
2022-10-18T20:43:21.488Z,79.80
2022-10-18T20:48:27.149Z,80.10
2022-10-18T20:53:30.942Z,79.70
2022-10-18T20:58:35.780Z,79.80
2022-10-18T21:03:42.101Z,80.20
2022-10-18T21:08:45.723Z,80.40
2022-10-18T21:13:51.998Z,80.80
2022-10-18T21:18:56.915Z,80.70
2022-10-18T21:24:03.895Z,81.00
2022-10-18T21:29:12.205Z,80.80
2022-10-18T21:34:18.247Z,81.10
2022-10-18T21:44:32.333Z,81.20
2022-10-18T21:49:36.977Z,81.00
2022-10-18T21:54:40.712Z,81.10
2022-10-18T21:59:44.064Z,81.30
2022-10-18T22:04:49.886Z,81.20
2022-10-18T22:09:53.179Z,81.20
2022-10-18T22:14:56.498Z,81.10
2022-10-18T22:20:01.160Z,81.10
2022-10-18T22:25:05.221Z,80.90
2022-10-18T22:30:09.415Z,81.00
2022-10-18T22:35:14.106Z,81.00
2022-10-18T22:40:17.558Z,80.90
2022-10-18T22:45:20.902Z,80.70
2022-10-18T22:50:25.829Z,81.10
2022-10-18T22:55:29.311Z,81.90
2022-10-18T23:00:32.671Z,82.00
2022-10-18T23:05:39.980Z,83.00
2022-10-18T23:10:44.046Z,82.00
2022-10-18T23:15:47.610Z,82.40
2022-10-18T23:20:52.257Z,82.70
2022-10-18T23:25:55.805Z,82.90
2022-10-18T23:30:59.315Z,81.80
2022-10-18T23:36:04.302Z,81.70
2022-10-18T23:41:09.441Z,81.70
2022-10-18T23:46:13.750Z,82.00
2022-10-18T23:51:19.318Z,81.90
2022-10-18T23:56:22.915Z,82.00
